createdAt,value
2022-10-06T00:00:48.518Z,6.17
2022-10-06T00:03:18.284Z,6.51
2022-10-06T00:05:46.255Z,5.70
2022-10-06T00:08:14.260Z,6.57
2022-10-06T00:10:42.222Z,6.29
2022-10-06T00:13:10.224Z,6.18
2022-10-06T00:15:38.537Z,6.33
2022-10-06T00:18:06.556Z,6.04
2022-10-06T00:20:35.995Z,6.56
2022-10-06T00:23:03.995Z,6.48
2022-10-06T00:25:32.512Z,6.43
2022-10-06T00:28:00.496Z,6.67
2022-10-06T00:30:31.208Z,6.47
2022-10-06T00:33:00.892Z,6.25
2022-10-06T00:35:32.091Z,6.41
2022-10-06T00:38:01.560Z,6.45
2022-10-06T00:40:30.816Z,6.36
2022-10-06T00:43:00.758Z,6.52
2022-10-06T00:45:32.703Z,6.25
2022-10-06T00:48:05.746Z,6.29
2022-10-06T00:50:34.583Z,6.19
2022-10-06T00:53:04.215Z,6.27
2022-10-06T00:55:32.207Z,6.11
2022-10-06T00:58:00.758Z,6.19
2022-10-06T01:00:29.329Z,6.13
2022-10-06T01:03:00.562Z,6.16
2022-10-06T01:05:30.826Z,6.21
2022-10-06T01:07:59.067Z,6.09
2022-10-06T01:10:28.547Z,6.09
2022-10-06T01:12:57.196Z,5.95
2022-10-06T01:15:26.111Z,6.18
2022-10-06T01:17:56.707Z,5.76
2022-10-06T01:20:24.954Z,6.15
2022-10-06T01:22:57.415Z,6.20
2022-10-06T01:25:25.409Z,6.15
2022-10-06T01:27:55.880Z,5.66
2022-10-06T01:30:28.773Z,5.86
2022-10-06T01:32:57.064Z,6.05
2022-10-06T01:35:25.411Z,5.70
2022-10-06T01:37:58.791Z,5.97
2022-10-06T01:40:29.046Z,6.27
2022-10-06T01:42:57.162Z,6.24
2022-10-06T01:45:25.179Z,5.89
2022-10-06T01:47:53.105Z,6.28
2022-10-06T01:50:21.064Z,6.06
2022-10-06T01:52:49.165Z,5.76
2022-10-06T01:55:19.435Z,6.28
2022-10-06T01:57:47.398Z,6.01
2022-10-06T02:00:15.701Z,6.32
2022-10-06T02:02:44.197Z,6.39
2022-10-06T02:05:12.587Z,6.38
2022-10-06T02:07:40.527Z,6.07
2022-10-06T02:10:09.088Z,6.15
2022-10-06T02:12:39.249Z,6.40
2022-10-06T02:15:10.639Z,6.18
2022-10-06T02:17:38.979Z,6.23
2022-10-06T02:20:07.550Z,6.40
2022-10-06T02:22:38.913Z,6.51
2022-10-06T02:25:07.285Z,6.53
2022-10-06T02:27:35.238Z,6.58
2022-10-06T02:30:05.675Z,6.52
2022-10-06T02:32:35.455Z,6.38
2022-10-06T02:35:04.732Z,6.58
2022-10-06T02:37:32.661Z,6.53
2022-10-06T02:40:01.015Z,6.50
2022-10-06T02:42:29.264Z,6.14
2022-10-06T02:44:59.171Z,6.44
2022-10-06T02:47:29.342Z,6.41
2022-10-06T02:49:57.266Z,6.33
2022-10-06T02:52:25.190Z,6.33
2022-10-06T02:54:53.081Z,6.51
2022-10-06T02:57:21.412Z,6.47
2022-10-06T02:59:49.568Z,6.42
2022-10-06T03:02:17.727Z,6.45
2022-10-06T03:04:47.170Z,6.25
2022-10-06T03:07:15.258Z,5.95
2022-10-06T03:09:43.431Z,6.41
2022-10-06T03:12:11.306Z,6.45
2022-10-06T03:14:39.672Z,6.50
2022-10-06T03:17:09.980Z,6.46
2022-10-06T03:19:38.542Z,6.52
2022-10-06T03:22:07.971Z,6.49
2022-10-06T03:24:35.994Z,6.08
2022-10-06T03:27:03.891Z,6.80
2022-10-06T03:29:31.937Z,6.72
2022-10-06T03:31:59.971Z,6.49
2022-10-06T03:34:27.927Z,6.83
2022-10-06T03:36:56.089Z,7.06
2022-10-06T03:39:25.409Z,6.96
2022-10-06T03:41:53.362Z,6.99
2022-10-06T03:44:22.012Z,6.83
2022-10-06T03:46:50.037Z,6.81
2022-10-06T03:49:18.100Z,6.68
2022-10-06T03:51:46.077Z,6.73
2022-10-06T03:54:15.063Z,6.43
2022-10-06T03:56:44.485Z,6.22
2022-10-06T03:59:13.921Z,6.32
2022-10-06T04:01:43.744Z,6.93
2022-10-06T04:04:12.081Z,6.96
2022-10-06T04:06:41.711Z,6.70
2022-10-06T04:09:15.002Z,6.82
2022-10-06T04:11:45.882Z,6.76
2022-10-06T04:14:15.418Z,6.66
2022-10-06T04:16:45.368Z,6.56
2022-10-06T04:19:14.746Z,6.48
2022-10-06T04:21:44.304Z,6.33
2022-10-06T04:24:12.760Z,6.09
2022-10-06T04:26:42.417Z,6.06
2022-10-06T04:29:11.773Z,6.12
2022-10-06T04:31:41.123Z,6.12
2022-10-06T04:34:10.208Z,6.11
2022-10-06T04:36:40.885Z,6.03
2022-10-06T04:39:10.740Z,6.15
2022-10-06T04:41:40.826Z,6.11
2022-10-06T04:44:10.336Z,6.17
2022-10-06T04:46:44.562Z,6.05
2022-10-06T04:49:19.058Z,6.31
2022-10-06T04:51:48.627Z,6.51
2022-10-06T04:54:16.643Z,6.19
2022-10-06T04:56:44.671Z,6.40
2022-10-06T04:59:12.629Z,6.28
2022-10-06T05:01:42.054Z,6.41
2022-10-06T05:04:09.987Z,6.06
2022-10-06T05:06:39.912Z,6.25
2022-10-06T05:09:09.193Z,6.15
2022-10-06T05:11:37.481Z,6.27
2022-10-06T05:14:09.183Z,6.17
2022-10-06T05:16:38.746Z,6.39
2022-10-06T05:19:08.386Z,6.26
2022-10-06T05:21:36.638Z,6.57
2022-10-06T05:24:04.959Z,6.62
2022-10-06T05:26:35.865Z,6.83
2022-10-06T05:29:04.241Z,7.03
2022-10-06T05:31:33.476Z,7.12
2022-10-06T05:34:01.669Z,7.10
2022-10-06T05:36:34.155Z,7.26
2022-10-06T05:39:02.965Z,7.27
2022-10-06T05:41:32.076Z,7.30
2022-10-06T05:44:00.037Z,7.48
2022-10-06T05:46:29.420Z,7.63
2022-10-06T05:48:58.427Z,7.87
2022-10-06T05:51:30.957Z,8.27
2022-10-06T05:54:01.211Z,8.18
2022-10-06T05:56:30.004Z,8.54
2022-10-06T05:58:58.964Z,8.55
2022-10-06T06:01:28.642Z,8.82
2022-10-06T06:03:59.485Z,8.91
2022-10-06T06:06:28.946Z,9.06
2022-10-06T06:08:58.701Z,9.26
2022-10-06T06:11:29.275Z,9.08
2022-10-06T06:13:58.082Z,9.14
2022-10-06T06:16:25.339Z,9.17
2022-10-06T06:18:53.420Z,9.24
2022-10-06T06:21:21.805Z,9.79
2022-10-06T06:23:50.257Z,9.88
2022-10-06T06:26:19.477Z,10.09
2022-10-06T06:28:50.873Z,10.28
2022-10-06T06:31:21.481Z,10.69
2022-10-06T06:33:51.794Z,10.77
2022-10-06T06:36:21.347Z,10.84
2022-10-06T06:38:52.006Z,10.73
2022-10-06T06:41:21.617Z,10.87
2022-10-06T06:44:06.899Z,10.51
2022-10-06T06:49:06.489Z,10.78
2022-10-06T06:51:35.841Z,11.19
2022-10-06T06:54:04.178Z,11.30
2022-10-06T06:56:34.952Z,11.13
2022-10-06T06:59:08.955Z,11.60
2022-10-06T07:01:37.137Z,11.86
2022-10-06T07:04:06.118Z,11.96
2022-10-06T07:06:34.778Z,12.03
2022-10-06T07:09:03.669Z,12.33
2022-10-06T07:11:33.096Z,12.45
2022-10-06T07:14:04.458Z,12.85
2022-10-06T07:16:52.179Z,12.61
2022-10-06T07:19:53.038Z,13.08
2022-10-06T07:22:39.822Z,12.92
2022-10-06T07:25:12.687Z,13.39
2022-10-06T07:27:43.150Z,13.66
2022-10-06T07:30:12.849Z,13.90
2022-10-06T07:32:42.312Z,14.13
2022-10-06T07:35:10.913Z,14.22
2022-10-06T07:37:38.910Z,14.35
2022-10-06T07:40:08.314Z,13.79
2022-10-06T07:42:48.394Z,14.28
2022-10-06T07:45:35.777Z,14.50
2022-10-06T07:48:06.750Z,14.76
2022-10-06T07:50:34.789Z,14.60
2022-10-06T07:53:04.997Z,14.10
2022-10-06T07:55:33.081Z,14.42
2022-10-06T07:58:01.073Z,14.94
2022-10-06T08:00:29.175Z,15.06
2022-10-06T08:02:57.237Z,15.43
2022-10-06T08:05:26.686Z,15.66
2022-10-06T08:07:55.011Z,15.79
2022-10-06T08:10:23.171Z,15.98
2022-10-06T08:12:51.231Z,16.07
2022-10-06T08:15:20.618Z,16.48
2022-10-06T08:17:48.682Z,16.68
2022-10-06T08:20:18.480Z,16.65
2022-10-06T08:22:49.146Z,17.18
2022-10-06T08:25:17.214Z,17.26
2022-10-06T08:27:46.490Z,17.57
2022-10-06T08:30:16.309Z,17.66
2022-10-06T08:32:44.284Z,17.71
2022-10-06T08:35:12.746Z,17.45
2022-10-06T08:37:40.789Z,17.68
2022-10-06T08:40:13.656Z,18.09
2022-10-06T08:42:43.642Z,18.26
2022-10-06T08:45:15.880Z,18.09
2022-10-06T08:47:52.255Z,18.37
2022-10-06T08:50:22.289Z,18.08
2022-10-06T08:52:56.234Z,18.29
2022-10-06T08:55:35.641Z,18.28
2022-10-06T08:58:14.693Z,18.52
2022-10-06T09:00:42.666Z,18.70
2022-10-06T09:03:19.797Z,18.98
2022-10-06T09:05:48.275Z,19.15
2022-10-06T09:08:25.616Z,19.36
2022-10-06T09:11:06.615Z,19.76
2022-10-06T09:13:38.467Z,19.94
2022-10-06T09:16:08.492Z,19.99
2022-10-06T09:19:09.443Z,20.01
2022-10-06T09:21:34.981Z,20.16
2022-10-06T09:24:07.731Z,20.38
2022-10-06T09:26:40.272Z,20.25
2022-10-06T09:29:08.360Z,20.67
2022-10-06T09:31:38.858Z,20.74
2022-10-06T09:34:15.605Z,20.76
2022-10-06T09:37:01.652Z,20.96
2022-10-06T09:39:33.446Z,21.29
2022-10-06T09:42:08.017Z,21.19
2022-10-06T09:44:55.264Z,21.45
2022-10-06T09:47:36.752Z,21.73
2022-10-06T09:50:17.698Z,21.60
2022-10-06T09:53:03.874Z,21.69
2022-10-06T09:55:33.896Z,21.85
2022-10-06T09:58:03.732Z,21.66
2022-10-06T10:00:33.309Z,22.06
2022-10-06T10:03:03.724Z,21.93
2022-10-06T10:05:33.985Z,21.56
2022-10-06T10:08:02.974Z,21.61
2022-10-06T10:10:31.107Z,21.69
2022-10-06T10:13:00.981Z,21.66
2022-10-06T10:15:33.177Z,22.16
2022-10-06T10:18:03.202Z,22.04
2022-10-06T10:20:37.549Z,22.33
2022-10-06T10:23:11.036Z,22.29
2022-10-06T10:26:08.034Z,22.49
2022-10-06T10:28:58.197Z,22.33
2022-10-06T10:31:33.378Z,22.58
2022-10-06T10:34:23.982Z,22.20
2022-10-06T10:36:55.565Z,21.96
2022-10-06T10:39:31.560Z,21.56
2022-10-06T10:42:03.033Z,21.49
2022-10-06T10:44:35.076Z,21.35
2022-10-06T10:47:12.947Z,22.07
2022-10-06T10:49:42.408Z,22.07
2022-10-06T10:52:14.648Z,22.04
2022-10-06T10:54:47.444Z,22.62
2022-10-06T10:57:18.241Z,22.44
2022-10-06T10:59:54.903Z,22.40
2022-10-06T11:02:24.638Z,22.13
2022-10-06T11:04:55.934Z,22.09
2022-10-06T11:07:26.550Z,22.56
2022-10-06T11:10:00.854Z,22.74
2022-10-06T11:12:40.622Z,22.42
2022-10-06T11:15:17.080Z,22.68
2022-10-06T11:17:49.400Z,22.62
2022-10-06T11:20:33.416Z,22.80
2022-10-06T11:23:09.761Z,22.48
2022-10-06T11:25:44.148Z,22.10
2022-10-06T11:28:17.319Z,22.68
2022-10-06T11:30:56.128Z,23.05
2022-10-06T11:33:29.314Z,22.94
2022-10-06T11:35:57.613Z,22.80
2022-10-06T11:38:28.591Z,23.11
2022-10-06T11:41:10.239Z,23.15
2022-10-06T11:43:44.250Z,23.06
2022-10-06T11:46:23.055Z,23.02
2022-10-06T11:48:53.167Z,23.25
2022-10-06T11:51:31.653Z,23.16
2022-10-06T11:53:59.861Z,22.87
2022-10-06T11:56:46.657Z,22.90
2022-10-06T11:59:31.602Z,23.14
2022-10-06T12:02:00.962Z,23.04
2022-10-06T12:04:30.772Z,22.74
2022-10-06T12:07:03.457Z,23.43
2022-10-06T12:09:44.657Z,23.10
2022-10-06T12:12:41.878Z,23.47
2022-10-06T12:18:36.879Z,23.29
2022-10-06T12:21:20.006Z,23.30
2022-10-06T12:23:55.845Z,23.41
2022-10-06T12:26:30.481Z,23.29
2022-10-06T12:29:02.433Z,23.34
2022-10-06T12:31:47.399Z,22.94
2022-10-06T12:34:52.693Z,22.79
2022-10-06T12:37:32.508Z,23.10
2022-10-06T12:40:39.548Z,23.05
2022-10-06T12:43:50.457Z,23.11
2022-10-06T12:46:25.266Z,22.96
2022-10-06T12:49:12.025Z,22.25
2022-10-06T12:51:41.496Z,21.94
2022-10-06T12:54:20.485Z,21.82
2022-10-06T12:57:16.110Z,21.72
2022-10-06T12:59:44.123Z,21.65
2022-10-06T13:02:18.989Z,21.37
2022-10-06T13:04:50.790Z,21.52
2022-10-06T13:07:22.054Z,21.42
2022-10-06T13:09:53.454Z,21.63
2022-10-06T13:12:27.287Z,21.61
2022-10-06T13:15:15.285Z,21.86
2022-10-06T13:17:45.186Z,21.97
2022-10-06T13:20:31.194Z,22.01
2022-10-06T13:22:59.939Z,22.30
2022-10-06T13:25:35.595Z,22.31
2022-10-06T13:28:03.591Z,21.91
2022-10-06T13:30:37.801Z,21.76
2022-10-06T13:33:08.628Z,21.60
2022-10-06T13:35:36.548Z,21.51
2022-10-06T13:38:06.318Z,21.67
2022-10-06T13:40:45.041Z,21.36
2022-10-06T13:43:17.071Z,21.36
2022-10-06T13:45:46.143Z,21.40
2022-10-06T13:48:16.661Z,21.34
2022-10-06T13:50:49.022Z,21.45
2022-10-06T13:53:25.760Z,21.61
2022-10-06T13:55:55.131Z,21.69
2022-10-06T13:58:27.718Z,21.73
2022-10-06T14:00:57.734Z,21.77
2022-10-06T14:03:28.770Z,21.55
2022-10-06T14:06:09.686Z,21.47
2022-10-06T14:08:37.996Z,21.36
2022-10-06T14:11:08.790Z,21.21
2022-10-06T14:13:42.805Z,21.21
2022-10-06T14:16:19.371Z,21.19
2022-10-06T14:21:34.022Z,21.25
2022-10-06T14:24:06.141Z,21.33
2022-10-06T14:26:39.834Z,21.27
2022-10-06T14:29:07.725Z,21.33
2022-10-06T14:31:35.713Z,21.26
2022-10-06T14:34:05.388Z,21.06
2022-10-06T14:36:34.527Z,21.07
2022-10-06T14:39:05.446Z,21.02
2022-10-06T14:41:33.362Z,20.89
2022-10-06T14:44:05.993Z,20.77
2022-10-06T14:46:34.836Z,20.68
2022-10-06T14:49:05.702Z,20.46
2022-10-06T14:51:36.542Z,20.30
2022-10-06T14:54:06.104Z,20.50
2022-10-06T14:56:35.613Z,20.42
2022-10-06T14:59:06.436Z,20.28
2022-10-06T15:01:35.999Z,20.04
2022-10-06T15:04:05.444Z,20.29
2022-10-06T15:06:50.912Z,20.07
2022-10-06T15:09:18.830Z,19.85
2022-10-06T15:11:46.732Z,19.84
2022-10-06T15:14:16.163Z,19.69
2022-10-06T15:16:44.779Z,19.88
2022-10-06T15:19:13.122Z,20.01
2022-10-06T15:21:41.838Z,19.68
2022-10-06T15:24:13.660Z,19.57
2022-10-06T15:26:59.386Z,19.20
2022-10-06T15:29:28.897Z,19.31
2022-10-06T15:31:58.642Z,19.19
2022-10-06T15:34:28.049Z,19.08
2022-10-06T15:36:57.813Z,18.97
2022-10-06T15:39:26.930Z,18.95
2022-10-06T15:41:55.056Z,18.95
2022-10-06T15:44:23.565Z,18.93
2022-10-06T15:46:53.839Z,18.66
2022-10-06T15:49:23.049Z,18.65
2022-10-06T15:51:53.711Z,18.68
2022-10-06T15:54:23.684Z,18.61
2022-10-06T15:56:52.821Z,18.40
2022-10-06T15:59:24.406Z,18.20
2022-10-06T16:01:56.790Z,18.02
2022-10-06T16:04:32.744Z,17.81
2022-10-06T16:07:01.024Z,17.66
2022-10-06T16:09:30.789Z,17.63
2022-10-06T16:11:59.709Z,17.91
2022-10-06T16:14:27.902Z,17.32
2022-10-06T16:16:59.839Z,17.37
2022-10-06T16:19:28.865Z,17.20
2022-10-06T16:21:59.146Z,16.87
2022-10-06T16:24:27.859Z,16.75
2022-10-06T16:26:57.267Z,16.51
2022-10-06T16:29:25.495Z,16.14
2022-10-06T16:31:53.683Z,16.01
2022-10-06T16:34:25.621Z,16.00
2022-10-06T16:36:53.583Z,15.80
2022-10-06T16:39:22.952Z,15.61
2022-10-06T16:41:51.549Z,15.50
2022-10-06T16:44:19.460Z,15.38
2022-10-06T16:46:47.597Z,15.15
2022-10-06T16:49:15.580Z,15.08
2022-10-06T16:51:46.790Z,14.95
2022-10-06T16:54:17.145Z,14.77
2022-10-06T16:56:46.410Z,14.71
2022-10-06T16:59:15.557Z,14.58
2022-10-06T17:01:44.314Z,14.50
2022-10-06T17:04:14.127Z,14.31
2022-10-06T17:06:45.308Z,14.21
2022-10-06T17:09:15.271Z,14.31
2022-10-06T17:11:44.621Z,14.21
2022-10-06T17:14:12.661Z,14.11
2022-10-06T17:16:42.172Z,13.97
2022-10-06T17:19:11.800Z,13.94
2022-10-06T17:21:50.485Z,13.75
2022-10-06T17:24:22.590Z,13.65
2022-10-06T17:26:51.325Z,13.65
2022-10-06T17:29:21.442Z,13.56
2022-10-06T17:31:51.101Z,13.54
2022-10-06T17:34:21.863Z,13.48
2022-10-06T17:36:52.397Z,13.43
2022-10-06T17:39:22.794Z,13.45
2022-10-06T17:41:52.557Z,13.38
2022-10-06T17:44:23.794Z,13.30
2022-10-06T17:46:53.539Z,13.19
2022-10-06T17:49:23.893Z,13.14
2022-10-06T17:51:53.453Z,13.15
2022-10-06T17:54:25.001Z,13.03
2022-10-06T17:56:54.172Z,12.92
2022-10-06T17:59:23.320Z,12.96
2022-10-06T18:01:52.275Z,12.96
2022-10-06T18:04:20.760Z,12.89
2022-10-06T18:06:49.362Z,12.82
2022-10-06T18:09:17.488Z,12.75
2022-10-06T18:11:48.328Z,12.75
2022-10-06T18:14:17.936Z,12.73
2022-10-06T18:16:52.136Z,12.60
2022-10-06T18:19:26.507Z,12.57
2022-10-06T18:21:56.649Z,12.55
2022-10-06T18:24:27.361Z,12.41
2022-10-06T18:26:58.015Z,12.36
2022-10-06T18:29:30.230Z,12.27
2022-10-06T18:32:15.071Z,12.26
2022-10-06T18:36:11.695Z,12.19
2022-10-06T18:37:34.898Z,12.09
2022-10-06T18:40:06.236Z,12.07
2022-10-06T18:42:35.889Z,11.99
2022-10-06T18:45:21.844Z,11.91
2022-10-06T18:48:07.213Z,11.90
2022-10-06T18:50:35.335Z,11.83
2022-10-06T18:53:04.439Z,11.79
2022-10-06T18:55:32.667Z,11.77
2022-10-06T18:58:02.067Z,11.80
2022-10-06T19:00:31.211Z,11.72
2022-10-06T19:02:59.117Z,11.60
2022-10-06T19:05:27.027Z,11.55
2022-10-06T19:07:55.771Z,11.54
2022-10-06T19:10:23.685Z,11.60
2022-10-06T19:12:51.600Z,11.56
2022-10-06T19:15:21.548Z,11.44
2022-10-06T19:17:49.913Z,11.40
2022-10-06T19:20:18.289Z,11.36
2022-10-06T19:22:47.552Z,11.31
2022-10-06T19:25:18.830Z,11.33
2022-10-06T19:27:47.025Z,11.31
2022-10-06T19:30:15.853Z,11.27
2022-10-06T19:32:45.136Z,11.27
2022-10-06T19:35:13.268Z,11.19
2022-10-06T19:37:41.588Z,11.10
2022-10-06T19:40:11.419Z,11.06
2022-10-06T19:42:47.705Z,11.07
2022-10-06T19:45:16.501Z,11.02
2022-10-06T19:47:47.065Z,10.96
2022-10-06T19:50:16.285Z,10.79
2022-10-06T19:52:44.182Z,10.84
2022-10-06T19:55:12.094Z,10.83
2022-10-06T19:57:40.093Z,10.86
2022-10-06T20:00:10.241Z,10.91
2022-10-06T20:02:42.115Z,10.90
2022-10-06T20:05:13.313Z,10.85
2022-10-06T20:07:42.357Z,10.69
2022-10-06T20:10:11.788Z,10.69
2022-10-06T20:12:42.195Z,10.86
2022-10-06T20:15:11.248Z,11.02
2022-10-06T20:17:41.759Z,10.69
2022-10-06T20:20:10.489Z,10.58
2022-10-06T20:22:39.887Z,10.55
2022-10-06T20:25:08.082Z,10.57
2022-10-06T20:27:36.012Z,10.50
2022-10-06T20:30:04.029Z,10.54
2022-10-06T20:32:32.001Z,10.47
2022-10-06T20:35:01.944Z,10.50
2022-10-06T20:37:29.921Z,10.40
2022-10-06T20:40:16.660Z,10.38
2022-10-06T20:42:49.185Z,10.43
2022-10-06T20:45:17.399Z,10.43
2022-10-06T20:47:47.642Z,10.45
2022-10-06T20:50:15.662Z,10.40
2022-10-06T20:52:43.666Z,10.35
2022-10-06T20:55:14.594Z,10.36
2022-10-06T20:57:42.564Z,10.35
2022-10-06T21:00:11.789Z,10.40
2022-10-06T21:02:40.371Z,10.40
2022-10-06T21:05:10.011Z,10.38
2022-10-06T21:07:37.937Z,10.38
2022-10-06T21:10:06.624Z,10.37
2022-10-06T21:12:35.940Z,10.31
2022-10-06T21:15:03.897Z,10.34
2022-10-06T21:17:31.820Z,10.26
2022-10-06T21:19:59.792Z,10.17
2022-10-06T21:22:31.151Z,9.87
2022-10-06T21:24:59.107Z,9.76
2022-10-06T21:27:27.011Z,10.07
2022-10-06T21:29:56.276Z,10.02
2022-10-06T21:32:24.267Z,9.74
2022-10-06T21:34:56.495Z,9.79
2022-10-06T21:37:24.471Z,9.92
2022-10-06T21:39:52.372Z,10.02
2022-10-06T21:42:20.333Z,9.98
2022-10-06T21:44:48.234Z,9.70
2022-10-06T21:47:17.623Z,9.90
2022-10-06T21:49:45.532Z,9.95
2022-10-06T21:52:13.484Z,9.94
2022-10-06T21:54:41.365Z,10.02
2022-10-06T21:57:09.304Z,9.95
2022-10-06T21:59:37.205Z,9.93
2022-10-06T22:02:05.184Z,9.82
2022-10-06T22:04:34.476Z,9.84
2022-10-06T22:07:02.413Z,9.74
2022-10-06T22:09:30.365Z,9.75
2022-10-06T22:11:58.359Z,9.75
2022-10-06T22:14:26.438Z,9.84
2022-10-06T22:16:54.347Z,9.93
2022-10-06T22:19:22.420Z,9.75
2022-10-06T22:21:51.841Z,9.87
2022-10-06T22:24:21.358Z,9.81
2022-10-06T22:26:51.776Z,9.73
2022-10-06T22:29:20.605Z,9.35
2022-10-06T22:31:49.418Z,9.59
2022-10-06T22:34:18.893Z,9.66
2022-10-06T22:36:46.932Z,9.45
2022-10-06T22:39:16.575Z,9.43
2022-10-06T22:41:45.317Z,9.45
2022-10-06T22:44:13.267Z,9.81
2022-10-06T22:46:41.266Z,9.65
2022-10-06T22:49:09.241Z,9.45
2022-10-06T22:51:38.512Z,9.27
2022-10-06T22:54:06.509Z,9.28
2022-10-06T22:56:35.987Z,9.21
2022-10-06T22:59:04.148Z,9.35
2022-10-06T23:01:32.303Z,9.19
2022-10-06T23:04:00.276Z,9.43
2022-10-06T23:06:29.800Z,9.52
2022-10-06T23:08:57.948Z,9.47
2022-10-06T23:11:25.906Z,9.36
2022-10-06T23:13:55.325Z,9.49
2022-10-06T23:16:23.955Z,9.28
2022-10-06T23:18:52.120Z,9.57
2022-10-06T23:21:22.518Z,9.41
2022-10-06T23:23:51.945Z,9.27
2022-10-06T23:26:20.230Z,9.44
2022-10-06T23:28:52.571Z,9.43
2022-10-06T23:31:21.963Z,9.48
2022-10-06T23:33:50.183Z,8.92
2022-10-06T23:36:18.851Z,9.32
2022-10-06T23:38:47.179Z,9.45
2022-10-06T23:41:15.307Z,9.36
2022-10-06T23:43:43.219Z,9.49
2022-10-06T23:46:11.279Z,9.49
2022-10-06T23:48:40.669Z,9.39
2022-10-06T23:51:10.000Z,9.26
2022-10-06T23:53:37.988Z,9.45
2022-10-06T23:56:06.508Z,9.40
2022-10-06T23:58:34.649Z,9.30
